sensor_id;sensor_type;location;lat;lon;timestamp;P1;durP1;ratioP1;P2;durP2;ratioP2
5805;SDS011;2929;50.810;8.342;2023-06-14T00:01:57;6.53;;;5.33;;
5805;SDS011;2929;50.810;8.342;2023-06-14T00:04:25;14.03;;;5.50;;
5805;SDS011;2929;50.810;8.342;2023-06-14T00:06:52;7.40;;;5.20;;
5805;SDS011;2929;50.810;8.342;2023-06-14T00:09:21;8.47;;;5.97;;
5805;SDS011;2929;50.810;8.342;2023-06-14T00:11:49;6.40;;;5.37;;
5805;SDS011;2929;50.810;8.342;2023-06-14T00:14:16;5.93;;;4.90;;
5805;SDS011;2929;50.810;8.342;2023-06-14T00:16:43;10.90;;;4.83;;
5805;SDS011;2929;50.810;8.342;2023-06-14T00:19:10;6.97;;;4.80;;
5805;SDS011;2929;50.810;8.342;2023-06-14T00:21:38;7.23;;;5.60;;
5805;SDS011;2929;50.810;8.342;2023-06-14T00:24:06;9.73;;;5.33;;
5805;SDS011;2929;50.810;8.342;2023-06-14T00:26:34;9.50;;;5.27;;
5805;SDS011;2929;50.810;8.342;2023-06-14T00:29:01;11.40;;;5.57;;
5805;SDS011;2929;50.810;8.342;2023-06-14T00:31:28;8.50;;;5.27;;
5805;SDS011;2929;50.810;8.342;2023-06-14T00:33:55;8.60;;;4.47;;
5805;SDS011;2929;50.810;8.342;2023-06-14T00:36:22;6.30;;;5.50;;
5805;SDS011;2929;50.810;8.342;2023-06-14T00:38:51;12.97;;;5.57;;
5805;SDS011;2929;50.810;8.342;2023-06-14T00:41:18;9.60;;;5.70;;
5805;SDS011;2929;50.810;8.342;2023-06-14T00:43:45;6.87;;;4.80;;
5805;SDS011;2929;50.810;8.342;2023-06-14T00:46:14;14.23;;;5.87;;
5805;SDS011;2929;50.810;8.342;2023-06-14T00:48:41;9.97;;;5.23;;
5805;SDS011;2929;50.810;8.342;2023-06-14T00:51:08;8.67;;;4.50;;
5805;SDS011;2929;50.810;8.342;2023-06-14T00:53:37;8.00;;;4.53;;
5805;SDS011;2929;50.810;8.342;2023-06-14T00:56:06;7.07;;;4.70;;
5805;SDS011;2929;50.810;8.342;2023-06-14T00:58:33;5.67;;;4.50;;
5805;SDS011;2929;50.810;8.342;2023-06-14T01:01:00;8.97;;;4.37;;
5805;SDS011;2929;50.810;8.342;2023-06-14T01:03:27;18.60;;;5.20;;
5805;SDS011;2929;50.810;8.342;2023-06-14T01:05:56;5.17;;;4.40;;
5805;SDS011;2929;50.810;8.342;2023-06-14T01:08:35;7.23;;;4.67;;
5805;SDS011;2929;50.810;8.342;2023-06-14T01:11:12;5.20;;;4.37;;
5805;SDS011;2929;50.810;8.342;2023-06-14T01:13:45;13.83;;;4.80;;
5805;SDS011;2929;50.810;8.342;2023-06-14T01:16:13;5.90;;;4.50;;
5805;SDS011;2929;50.810;8.342;2023-06-14T01:18:41;4.60;;;4.07;;
5805;SDS011;2929;50.810;8.342;2023-06-14T01:21:22;8.77;;;4.70;;
5805;SDS011;2929;50.810;8.342;2023-06-14T01:23:51;8.00;;;4.43;;
5805;SDS011;2929;50.810;8.342;2023-06-14T01:26:19;5.80;;;4.97;;
5805;SDS011;2929;50.810;8.342;2023-06-14T01:28:47;10.40;;;5.00;;
5805;SDS011;2929;50.810;8.342;2023-06-14T01:31:16;6.50;;;4.77;;
5805;SDS011;2929;50.810;8.342;2023-06-14T01:33:47;6.07;;;4.73;;
5805;SDS011;2929;50.810;8.342;2023-06-14T01:36:16;6.97;;;4.97;;
5805;SDS011;2929;50.810;8.342;2023-06-14T01:38:44;5.67;;;4.20;;
5805;SDS011;2929;50.810;8.342;2023-06-14T01:41:14;7.40;;;4.33;;
5805;SDS011;2929;50.810;8.342;2023-06-14T01:43:43;7.47;;;5.07;;
5805;SDS011;2929;50.810;8.342;2023-06-14T01:46:11;7.33;;;4.10;;
5805;SDS011;2929;50.810;8.342;2023-06-14T01:48:40;6.23;;;4.90;;
5805;SDS011;2929;50.810;8.342;2023-06-14T01:51:08;7.60;;;4.37;;
5805;SDS011;2929;50.810;8.342;2023-06-14T01:53:36;9.73;;;4.57;;
5805;SDS011;2929;50.810;8.342;2023-06-14T01:56:03;6.90;;;4.70;;
5805;SDS011;2929;50.810;8.342;2023-06-14T01:58:32;6.80;;;4.20;;
5805;SDS011;2929;50.810;8.342;2023-06-14T02:00:59;6.97;;;4.80;;
5805;SDS011;2929;50.810;8.342;2023-06-14T02:03:27;5.63;;;4.17;;
5805;SDS011;2929;50.810;8.342;2023-06-14T02:05:55;6.53;;;4.60;;
5805;SDS011;2929;50.810;8.342;2023-06-14T02:08:22;5.20;;;3.93;;
5805;SDS011;2929;50.810;8.342;2023-06-14T02:10:49;7.53;;;4.30;;
5805;SDS011;2929;50.810;8.342;2023-06-14T02:13:16;7.63;;;4.67;;
5805;SDS011;2929;50.810;8.342;2023-06-14T02:15:45;6.77;;;3.93;;
5805;SDS011;2929;50.810;8.342;2023-06-14T02:18:13;6.80;;;3.90;;
5805;SDS011;2929;50.810;8.342;2023-06-14T02:20:42;6.43;;;4.83;;
5805;SDS011;2929;50.810;8.342;2023-06-14T02:23:10;6.17;;;4.70;;
5805;SDS011;2929;50.810;8.342;2023-06-14T02:25:37;6.50;;;4.80;;
5805;SDS011;2929;50.810;8.342;2023-06-14T02:28:06;14.67;;;4.17;;
5805;SDS011;2929;50.810;8.342;2023-06-14T02:30:33;6.50;;;3.97;;
5805;SDS011;2929;50.810;8.342;2023-06-14T02:33:02;8.40;;;4.23;;
5805;SDS011;2929;50.810;8.342;2023-06-14T02:35:34;6.80;;;4.00;;
5805;SDS011;2929;50.810;8.342;2023-06-14T02:38:02;6.73;;;4.30;;
5805;SDS011;2929;50.810;8.342;2023-06-14T02:40:30;9.50;;;4.40;;
5805;SDS011;2929;50.810;8.342;2023-06-14T02:42:57;5.67;;;3.90;;
5805;SDS011;2929;50.810;8.342;2023-06-14T02:45:24;6.10;;;3.90;;
5805;SDS011;2929;50.810;8.342;2023-06-14T02:47:51;7.57;;;4.00;;
5805;SDS011;2929;50.810;8.342;2023-06-14T02:50:19;6.43;;;3.77;;
5805;SDS011;2929;50.810;8.342;2023-06-14T02:52:49;8.80;;;4.20;;
5805;SDS011;2929;50.810;8.342;2023-06-14T02:55:18;4.80;;;4.10;;
5805;SDS011;2929;50.810;8.342;2023-06-14T02:57:45;12.47;;;4.93;;
5805;SDS011;2929;50.810;8.342;2023-06-14T03:00:13;5.80;;;4.10;;
5805;SDS011;2929;50.810;8.342;2023-06-14T03:02:43;4.90;;;3.90;;
5805;SDS011;2929;50.810;8.342;2023-06-14T03:05:11;4.90;;;3.70;;
5805;SDS011;2929;50.810;8.342;2023-06-14T03:07:40;4.20;;;3.80;;
5805;SDS011;2929;50.810;8.342;2023-06-14T03:10:10;8.57;;;4.90;;
5805;SDS011;2929;50.810;8.342;2023-06-14T03:12:39;10.70;;;4.67;;
5805;SDS011;2929;50.810;8.342;2023-06-14T03:15:09;5.77;;;4.10;;
5805;SDS011;2929;50.810;8.342;2023-06-14T03:17:40;7.90;;;4.20;;
5805;SDS011;2929;50.810;8.342;2023-06-14T03:20:10;6.40;;;4.23;;
5805;SDS011;2929;50.810;8.342;2023-06-14T03:22:37;4.70;;;3.80;;
5805;SDS011;2929;50.810;8.342;2023-06-14T03:25:07;8.10;;;4.37;;
5805;SDS011;2929;50.810;8.342;2023-06-14T03:27:38;7.20;;;3.93;;
5805;SDS011;2929;50.810;8.342;2023-06-14T03:30:06;8.83;;;4.30;;
5805;SDS011;2929;50.810;8.342;2023-06-14T03:32:34;9.53;;;4.50;;
5805;SDS011;2929;50.810;8.342;2023-06-14T03:35:03;7.80;;;4.40;;
5805;SDS011;2929;50.810;8.342;2023-06-14T03:37:30;6.93;;;4.50;;
5805;SDS011;2929;50.810;8.342;2023-06-14T03:39:59;11.17;;;4.53;;
5805;SDS011;2929;50.810;8.342;2023-06-14T03:42:26;6.60;;;4.93;;
5805;SDS011;2929;50.810;8.342;2023-06-14T03:44:54;10.10;;;4.30;;
5805;SDS011;2929;50.810;8.342;2023-06-14T03:47:22;12.70;;;4.30;;
5805;SDS011;2929;50.810;8.342;2023-06-14T03:49:49;9.20;;;4.47;;
5805;SDS011;2929;50.810;8.342;2023-06-14T03:52:17;10.93;;;4.70;;
5805;SDS011;2929;50.810;8.342;2023-06-14T03:54:45;5.13;;;3.87;;
5805;SDS011;2929;50.810;8.342;2023-06-14T03:57:14;8.27;;;4.70;;
5805;SDS011;2929;50.810;8.342;2023-06-14T03:59:42;13.43;;;4.47;;
5805;SDS011;2929;50.810;8.342;2023-06-14T04:02:10;10.50;;;4.80;;
5805;SDS011;2929;50.810;8.342;2023-06-14T04:04:40;6.60;;;4.33;;
5805;SDS011;2929;50.810;8.342;2023-06-14T04:07:10;11.50;;;4.10;;
5805;SDS011;2929;50.810;8.342;2023-06-14T04:09:37;6.23;;;4.27;;
5805;SDS011;2929;50.810;8.342;2023-06-14T04:12:04;9.50;;;3.83;;
5805;SDS011;2929;50.810;8.342;2023-06-14T04:14:35;7.07;;;4.00;;
5805;SDS011;2929;50.810;8.342;2023-06-14T04:17:02;13.97;;;4.33;;
5805;SDS011;2929;50.810;8.342;2023-06-14T04:19:29;11.00;;;5.30;;
5805;SDS011;2929;50.810;8.342;2023-06-14T04:21:57;5.27;;;4.70;;
5805;SDS011;2929;50.810;8.342;2023-06-14T04:24:26;7.43;;;4.70;;
5805;SDS011;2929;50.810;8.342;2023-06-14T04:26:58;8.43;;;5.07;;
5805;SDS011;2929;50.810;8.342;2023-06-14T04:29:27;8.87;;;4.40;;
5805;SDS011;2929;50.810;8.342;2023-06-14T04:32:01;10.47;;;5.13;;
5805;SDS011;2929;50.810;8.342;2023-06-14T04:34:28;11.40;;;6.23;;
5805;SDS011;2929;50.810;8.342;2023-06-14T04:36:57;13.33;;;4.60;;
5805;SDS011;2929;50.810;8.342;2023-06-14T04:39:36;6.70;;;4.37;;
5805;SDS011;2929;50.810;8.342;2023-06-14T04:42:04;8.70;;;4.20;;
5805;SDS011;2929;50.810;8.342;2023-06-14T04:44:33;13.10;;;4.53;;
5805;SDS011;2929;50.810;8.342;2023-06-14T04:47:05;8.80;;;4.87;;
5805;SDS011;2929;50.810;8.342;2023-06-14T04:49:32;7.67;;;4.50;;
5805;SDS011;2929;50.810;8.342;2023-06-14T04:52:00;7.03;;;3.97;;
5805;SDS011;2929;50.810;8.342;2023-06-14T04:54:32;14.60;;;4.57;;
5805;SDS011;2929;50.810;8.342;2023-06-14T04:57:02;13.03;;;4.60;;
5805;SDS011;2929;50.810;8.342;2023-06-14T04:59:31;5.80;;;4.23;;
5805;SDS011;2929;50.810;8.342;2023-06-14T05:01:59;8.17;;;4.40;;
5805;SDS011;2929;50.810;8.342;2023-06-14T05:04:27;6.20;;;3.87;;
5805;SDS011;2929;50.810;8.342;2023-06-14T05:07:01;5.60;;;4.13;;
5805;SDS011;2929;50.810;8.342;2023-06-14T05:09:29;5.70;;;4.27;;
5805;SDS011;2929;50.810;8.342;2023-06-14T05:11:56;7.43;;;4.10;;
5805;SDS011;2929;50.810;8.342;2023-06-14T05:14:25;14.47;;;3.93;;
5805;SDS011;2929;50.810;8.342;2023-06-14T05:16:53;8.63;;;3.97;;
5805;SDS011;2929;50.810;8.342;2023-06-14T05:19:20;6.80;;;3.30;;
5805;SDS011;2929;50.810;8.342;2023-06-14T05:21:48;11.00;;;4.63;;
5805;SDS011;2929;50.810;8.342;2023-06-14T05:24:16;8.20;;;3.63;;
5805;SDS011;2929;50.810;8.342;2023-06-14T05:26:43;5.13;;;3.60;;
5805;SDS011;2929;50.810;8.342;2023-06-14T05:29:10;7.53;;;2.90;;
5805;SDS011;2929;50.810;8.342;2023-06-14T05:31:37;3.90;;;2.90;;
5805;SDS011;2929;50.810;8.342;2023-06-14T05:34:04;6.53;;;3.60;;
5805;SDS011;2929;50.810;8.342;2023-06-14T05:36:32;5.53;;;3.40;;
5805;SDS011;2929;50.810;8.342;2023-06-14T05:39:00;4.60;;;2.70;;
5805;SDS011;2929;50.810;8.342;2023-06-14T05:41:28;6.70;;;3.10;;
5805;SDS011;2929;50.810;8.342;2023-06-14T05:43:55;6.93;;;2.90;;
5805;SDS011;2929;50.810;8.342;2023-06-14T05:46:23;5.57;;;3.17;;
5805;SDS011;2929;50.810;8.342;2023-06-14T05:48:50;5.40;;;2.73;;
5805;SDS011;2929;50.810;8.342;2023-06-14T05:51:18;5.10;;;3.17;;
5805;SDS011;2929;50.810;8.342;2023-06-14T05:53:45;5.10;;;3.00;;
5805;SDS011;2929;50.810;8.342;2023-06-14T05:56:14;9.03;;;3.50;;
5805;SDS011;2929;50.810;8.342;2023-06-14T05:58:42;3.13;;;2.83;;
5805;SDS011;2929;50.810;8.342;2023-06-14T06:01:10;10.80;;;3.97;;
5805;SDS011;2929;50.810;8.342;2023-06-14T06:03:38;4.93;;;2.93;;
5805;SDS011;2929;50.810;8.342;2023-06-14T06:06:05;11.63;;;3.93;;
5805;SDS011;2929;50.810;8.342;2023-06-14T06:08:33;3.57;;;2.73;;
5805;SDS011;2929;50.810;8.342;2023-06-14T06:11:00;3.97;;;2.80;;
5805;SDS011;2929;50.810;8.342;2023-06-14T06:13:29;5.43;;;3.73;;
5805;SDS011;2929;50.810;8.342;2023-06-14T06:15:56;3.67;;;2.80;;
5805;SDS011;2929;50.810;8.342;2023-06-14T06:18:23;6.00;;;3.10;;
5805;SDS011;2929;50.810;8.342;2023-06-14T06:20:50;5.00;;;2.93;;
5805;SDS011;2929;50.810;8.342;2023-06-14T06:23:17;4.07;;;2.73;;
5805;SDS011;2929;50.810;8.342;2023-06-14T06:25:44;4.73;;;3.10;;
5805;SDS011;2929;50.810;8.342;2023-06-14T06:28:11;7.53;;;3.47;;
5805;SDS011;2929;50.810;8.342;2023-06-14T06:30:40;3.67;;;2.70;;
5805;SDS011;2929;50.810;8.342;2023-06-14T06:33:07;5.40;;;3.10;;
5805;SDS011;2929;50.810;8.342;2023-06-14T06:35:34;4.60;;;2.67;;
5805;SDS011;2929;50.810;8.342;2023-06-14T06:38:01;3.17;;;2.63;;
5805;SDS011;2929;50.810;8.342;2023-06-14T06:40:28;5.03;;;2.33;;
5805;SDS011;2929;50.810;8.342;2023-06-14T06:42:55;2.37;;;2.17;;
5805;SDS011;2929;50.810;8.342;2023-06-14T06:45:26;3.00;;;2.23;;
5805;SDS011;2929;50.810;8.342;2023-06-14T06:47:54;3.97;;;2.50;;
5805;SDS011;2929;50.810;8.342;2023-06-14T06:50:21;7.43;;;3.00;;
5805;SDS011;2929;50.810;8.342;2023-06-14T06:52:50;3.50;;;2.30;;
5805;SDS011;2929;50.810;8.342;2023-06-14T06:55:18;3.20;;;2.37;;
5805;SDS011;2929;50.810;8.342;2023-06-14T06:57:45;5.50;;;2.40;;
5805;SDS011;2929;50.810;8.342;2023-06-14T07:00:12;5.43;;;2.90;;
5805;SDS011;2929;50.810;8.342;2023-06-14T07:02:39;4.30;;;3.50;;
5805;SDS011;2929;50.810;8.342;2023-06-14T07:05:14;5.10;;;2.70;;
5805;SDS011;2929;50.810;8.342;2023-06-14T07:07:41;3.90;;;2.30;;
5805;SDS011;2929;50.810;8.342;2023-06-14T07:10:08;4.10;;;2.13;;
5805;SDS011;2929;50.810;8.342;2023-06-14T07:12:36;6.47;;;2.70;;
5805;SDS011;2929;50.810;8.342;2023-06-14T07:15:05;4.17;;;2.50;;
5805;SDS011;2929;50.810;8.342;2023-06-14T07:17:33;4.43;;;2.97;;
5805;SDS011;2929;50.810;8.342;2023-06-14T07:20:01;2.57;;;2.37;;
5805;SDS011;2929;50.810;8.342;2023-06-14T07:22:38;2.37;;;2.17;;
5805;SDS011;2929;50.810;8.342;2023-06-14T07:25:07;8.13;;;2.60;;
5805;SDS011;2929;50.810;8.342;2023-06-14T07:27:34;4.70;;;2.43;;
5805;SDS011;2929;50.810;8.342;2023-06-14T07:30:02;4.80;;;2.13;;
5805;SDS011;2929;50.810;8.342;2023-06-14T07:32:29;2.70;;;2.20;;
5805;SDS011;2929;50.810;8.342;2023-06-14T07:34:56;2.00;;;1.80;;
5805;SDS011;2929;50.810;8.342;2023-06-14T07:37:23;6.67;;;2.37;;
5805;SDS011;2929;50.810;8.342;2023-06-14T07:39:53;2.83;;;2.27;;
5805;SDS011;2929;50.810;8.342;2023-06-14T07:42:20;4.10;;;2.27;;
5805;SDS011;2929;50.810;8.342;2023-06-14T07:44:47;2.60;;;2.40;;
5805;SDS011;2929;50.810;8.342;2023-06-14T07:47:15;2.50;;;2.27;;
5805;SDS011;2929;50.810;8.342;2023-06-14T07:49:42;2.80;;;2.10;;
5805;SDS011;2929;50.810;8.342;2023-06-14T07:52:09;2.40;;;2.20;;
5805;SDS011;2929;50.810;8.342;2023-06-14T07:54:38;5.27;;;2.70;;
5805;SDS011;2929;50.810;8.342;2023-06-14T07:57:07;5.27;;;2.80;;
5805;SDS011;2929;50.810;8.342;2023-06-14T07:59:35;3.07;;;2.23;;
5805;SDS011;2929;50.810;8.342;2023-06-14T08:02:02;2.43;;;2.17;;
5805;SDS011;2929;50.810;8.342;2023-06-14T08:04:29;2.93;;;2.03;;
5805;SDS011;2929;50.810;8.342;2023-06-14T08:06:57;2.90;;;2.13;;
5805;SDS011;2929;50.810;8.342;2023-06-14T08:09:24;6.67;;;2.27;;
5805;SDS011;2929;50.810;8.342;2023-06-14T08:11:53;6.00;;;1.60;;
5805;SDS011;2929;50.810;8.342;2023-06-14T08:14:21;3.93;;;1.87;;
5805;SDS011;2929;50.810;8.342;2023-06-14T08:16:48;8.73;;;1.80;;
5805;SDS011;2929;50.810;8.342;2023-06-14T08:19:16;2.80;;;1.70;;
5805;SDS011;2929;50.810;8.342;2023-06-14T08:21:43;2.27;;;1.40;;
5805;SDS011;2929;50.810;8.342;2023-06-14T08:24:11;1.90;;;1.70;;
5805;SDS011;2929;50.810;8.342;2023-06-14T08:26:39;2.93;;;1.53;;
5805;SDS011;2929;50.810;8.342;2023-06-14T08:29:06;4.67;;;2.40;;
5805;SDS011;2929;50.810;8.342;2023-06-14T08:31:35;2.00;;;1.40;;
5805;SDS011;2929;50.810;8.342;2023-06-14T08:34:02;2.00;;;1.63;;
5805;SDS011;2929;50.810;8.342;2023-06-14T08:36:29;2.53;;;1.57;;
5805;SDS011;2929;50.810;8.342;2023-06-14T08:38:56;2.40;;;1.40;;
5805;SDS011;2929;50.810;8.342;2023-06-14T08:41:23;6.43;;;1.60;;
5805;SDS011;2929;50.810;8.342;2023-06-14T08:43:50;1.87;;;1.57;;
5805;SDS011;2929;50.810;8.342;2023-06-14T08:46:18;1.60;;;1.40;;
5805;SDS011;2929;50.810;8.342;2023-06-14T08:48:49;3.70;;;1.60;;
5805;SDS011;2929;50.810;8.342;2023-06-14T08:51:18;1.97;;;1.53;;
5805;SDS011;2929;50.810;8.342;2023-06-14T08:53:48;2.23;;;1.47;;
5805;SDS011;2929;50.810;8.342;2023-06-14T08:56:19;1.90;;;1.80;;
5805;SDS011;2929;50.810;8.342;2023-06-14T08:58:47;1.63;;;1.53;;
5805;SDS011;2929;50.810;8.342;2023-06-14T09:01:15;4.77;;;1.57;;
5805;SDS011;2929;50.810;8.342;2023-06-14T09:03:44;2.17;;;1.97;;
5805;SDS011;2929;50.810;8.342;2023-06-14T09:06:15;2.67;;;1.63;;
5805;SDS011;2929;50.810;8.342;2023-06-14T09:08:45;4.27;;;1.70;;
5805;SDS011;2929;50.810;8.342;2023-06-14T09:11:13;3.33;;;1.80;;
5805;SDS011;2929;50.810;8.342;2023-06-14T09:13:41;3.40;;;1.90;;
5805;SDS011;2929;50.810;8.342;2023-06-14T09:16:08;8.10;;;2.53;;
5805;SDS011;2929;50.810;8.342;2023-06-14T09:18:36;3.00;;;2.07;;
5805;SDS011;2929;50.810;8.342;2023-06-14T09:21:05;4.23;;;2.23;;
5805;SDS011;2929;50.810;8.342;2023-06-14T09:23:35;2.17;;;1.80;;
5805;SDS011;2929;50.810;8.342;2023-06-14T09:26:07;2.23;;;2.03;;
5805;SDS011;2929;50.810;8.342;2023-06-14T09:28:35;2.00;;;1.80;;
5805;SDS011;2929;50.810;8.342;2023-06-14T09:31:02;2.43;;;1.70;;
5805;SDS011;2929;50.810;8.342;2023-06-14T09:33:30;3.57;;;1.77;;
5805;SDS011;2929;50.810;8.342;2023-06-14T09:35:58;3.23;;;2.33;;
5805;SDS011;2929;50.810;8.342;2023-06-14T09:38:25;3.20;;;2.33;;
5805;SDS011;2929;50.810;8.342;2023-06-14T09:40:54;5.63;;;2.40;;
5805;SDS011;2929;50.810;8.342;2023-06-14T09:43:23;3.47;;;2.13;;
5805;SDS011;2929;50.810;8.342;2023-06-14T09:45:51;2.60;;;2.40;;
5805;SDS011;2929;50.810;8.342;2023-06-14T09:48:20;2.40;;;2.13;;
5805;SDS011;2929;50.810;8.342;2023-06-14T09:50:47;6.73;;;2.67;;
5805;SDS011;2929;50.810;8.342;2023-06-14T09:53:16;2.60;;;2.37;;
5805;SDS011;2929;50.810;8.342;2023-06-14T09:55:47;2.30;;;2.10;;
5805;SDS011;2929;50.810;8.342;2023-06-14T09:58:20;2.60;;;2.13;;
5805;SDS011;2929;50.810;8.342;2023-06-14T10:00:49;7.40;;;2.30;;
5805;SDS011;2929;50.810;8.342;2023-06-14T10:03:19;6.83;;;2.10;;
5805;SDS011;2929;50.810;8.342;2023-06-14T10:05:51;2.50;;;2.30;;
5805;SDS011;2929;50.810;8.342;2023-06-14T10:08:22;7.63;;;2.53;;
5805;SDS011;2929;50.810;8.342;2023-06-14T10:10:57;3.87;;;2.23;;
5805;SDS011;2929;50.810;8.342;2023-06-14T10:13:26;3.40;;;2.20;;
5805;SDS011;2929;50.810;8.342;2023-06-14T10:15:59;3.67;;;1.83;;
5805;SDS011;2929;50.810;8.342;2023-06-14T10:18:33;3.10;;;2.60;;
5805;SDS011;2929;50.810;8.342;2023-06-14T10:21:08;4.33;;;1.73;;
5805;SDS011;2929;50.810;8.342;2023-06-14T10:23:45;2.60;;;2.03;;
5805;SDS011;2929;50.810;8.342;2023-06-14T10:26:20;2.10;;;1.90;;
5805;SDS011;2929;50.810;8.342;2023-06-14T10:28:59;3.63;;;1.90;;
5805;SDS011;2929;50.810;8.342;2023-06-14T10:34:20;3.60;;;1.90;;
5805;SDS011;2929;50.810;8.342;2023-06-14T10:37:02;3.63;;;1.97;;
5805;SDS011;2929;50.810;8.342;2023-06-14T10:39:30;3.47;;;2.20;;
5805;SDS011;2929;50.810;8.342;2023-06-14T10:41:58;6.53;;;2.13;;
5805;SDS011;2929;50.810;8.342;2023-06-14T10:44:43;4.57;;;2.00;;
5805;SDS011;2929;50.810;8.342;2023-06-14T10:50:02;2.03;;;1.93;;
5805;SDS011;2929;50.810;8.342;2023-06-14T10:52:33;2.03;;;1.83;;
5805;SDS011;2929;50.810;8.342;2023-06-14T10:57:40;4.93;;;2.10;;
5805;SDS011;2929;50.810;8.342;2023-06-14T11:00:10;7.80;;;1.97;;
5805;SDS011;2929;50.810;8.342;2023-06-14T11:03:07;2.23;;;1.87;;
5805;SDS011;2929;50.810;8.342;2023-06-14T11:05:56;2.30;;;2.10;;
5805;SDS011;2929;50.810;8.342;2023-06-14T11:08:47;7.20;;;2.10;;
5805;SDS011;2929;50.810;8.342;2023-06-14T11:11:44;2.17;;;1.87;;
5805;SDS011;2929;50.810;8.342;2023-06-14T11:14:12;2.70;;;2.10;;
5805;SDS011;2929;50.810;8.342;2023-06-14T11:16:41;2.00;;;1.90;;
5805;SDS011;2929;50.810;8.342;2023-06-14T11:19:08;3.73;;;1.90;;
5805;SDS011;2929;50.810;8.342;2023-06-14T11:21:39;8.80;;;2.00;;
5805;SDS011;2929;50.810;8.342;2023-06-14T11:24:09;4.37;;;2.10;;
5805;SDS011;2929;50.810;8.342;2023-06-14T11:26:37;5.13;;;1.83;;
5805;SDS011;2929;50.810;8.342;2023-06-14T11:29:05;5.83;;;2.17;;
5805;SDS011;2929;50.810;8.342;2023-06-14T11:31:32;3.43;;;2.10;;
5805;SDS011;2929;50.810;8.342;2023-06-14T11:34:00;3.60;;;1.70;;
5805;SDS011;2929;50.810;8.342;2023-06-14T11:36:29;2.30;;;2.10;;
5805;SDS011;2929;50.810;8.342;2023-06-14T11:38:58;3.00;;;1.80;;
5805;SDS011;2929;50.810;8.342;2023-06-14T11:41:31;3.77;;;2.10;;
5805;SDS011;2929;50.810;8.342;2023-06-14T11:44:00;5.17;;;2.70;;
5805;SDS011;2929;50.810;8.342;2023-06-14T11:46:27;3.00;;;1.87;;
5805;SDS011;2929;50.810;8.342;2023-06-14T11:48:55;3.90;;;1.97;;
5805;SDS011;2929;50.810;8.342;2023-06-14T11:51:23;2.50;;;1.93;;
5805;SDS011;2929;50.810;8.342;2023-06-14T11:53:50;2.63;;;1.83;;
5805;SDS011;2929;50.810;8.342;2023-06-14T11:56:18;5.83;;;2.30;;
5805;SDS011;2929;50.810;8.342;2023-06-14T11:58:46;4.13;;;1.93;;
5805;SDS011;2929;50.810;8.342;2023-06-14T12:01:14;3.50;;;2.00;;
5805;SDS011;2929;50.810;8.342;2023-06-14T12:03:47;2.87;;;2.10;;
5805;SDS011;2929;50.810;8.342;2023-06-14T12:06:15;3.13;;;2.30;;
5805;SDS011;2929;50.810;8.342;2023-06-14T12:08:44;3.13;;;2.20;;
5805;SDS011;2929;50.810;8.342;2023-06-14T12:11:14;2.37;;;2.17;;
5805;SDS011;2929;50.810;8.342;2023-06-14T12:13:42;4.23;;;2.00;;
5805;SDS011;2929;50.810;8.342;2023-06-14T12:16:11;2.27;;;2.03;;
5805;SDS011;2929;50.810;8.342;2023-06-14T12:18:39;3.23;;;2.27;;
5805;SDS011;2929;50.810;8.342;2023-06-14T12:21:09;2.10;;;1.90;;
5805;SDS011;2929;50.810;8.342;2023-06-14T12:23:44;2.50;;;2.30;;
5805;SDS011;2929;50.810;8.342;2023-06-14T12:26:12;6.93;;;2.27;;
5805;SDS011;2929;50.810;8.342;2023-06-14T12:28:40;2.60;;;2.00;;
5805;SDS011;2929;50.810;8.342;2023-06-14T12:31:08;4.20;;;2.20;;
5805;SDS011;2929;50.810;8.342;2023-06-14T12:33:36;2.00;;;1.90;;
5805;SDS011;2929;50.810;8.342;2023-06-14T12:36:04;5.93;;;1.77;;
5805;SDS011;2929;50.810;8.342;2023-06-14T12:38:32;5.10;;;1.90;;
5805;SDS011;2929;50.810;8.342;2023-06-14T12:41:00;3.73;;;1.97;;
5805;SDS011;2929;50.810;8.342;2023-06-14T12:43:28;2.40;;;2.20;;
5805;SDS011;2929;50.810;8.342;2023-06-14T12:45:55;3.27;;;2.17;;
5805;SDS011;2929;50.810;8.342;2023-06-14T12:48:23;2.10;;;1.90;;
5805;SDS011;2929;50.810;8.342;2023-06-14T12:50:52;2.27;;;2.10;;
5805;SDS011;2929;50.810;8.342;2023-06-14T12:53:19;2.20;;;1.90;;
5805;SDS011;2929;50.810;8.342;2023-06-14T12:55:46;2.40;;;2.20;;
5805;SDS011;2929;50.810;8.342;2023-06-14T12:58:15;2.40;;;2.13;;
5805;SDS011;2929;50.810;8.342;2023-06-14T13:00:44;4.40;;;1.97;;
5805;SDS011;2929;50.810;8.342;2023-06-14T13:03:12;5.30;;;2.23;;
5805;SDS011;2929;50.810;8.342;2023-06-14T13:05:39;2.50;;;2.20;;
5805;SDS011;2929;50.810;8.342;2023-06-14T13:08:06;2.20;;;2.10;;
5805;SDS011;2929;50.810;8.342;2023-06-14T13:10:34;1.87;;;1.77;;
5805;SDS011;2929;50.810;8.342;2023-06-14T13:13:01;2.20;;;2.00;;
5805;SDS011;2929;50.810;8.342;2023-06-14T13:15:30;2.73;;;2.00;;
5805;SDS011;2929;50.810;8.342;2023-06-14T13:17:57;2.90;;;1.77;;
5805;SDS011;2929;50.810;8.342;2023-06-14T13:20:24;2.30;;;1.80;;
5805;SDS011;2929;50.810;8.342;2023-06-14T13:22:51;1.83;;;1.73;;
5805;SDS011;2929;50.810;8.342;2023-06-14T13:25:18;4.67;;;2.23;;
5805;SDS011;2929;50.810;8.342;2023-06-14T13:27:47;3.73;;;1.93;;
5805;SDS011;2929;50.810;8.342;2023-06-14T13:30:15;5.00;;;2.17;;
5805;SDS011;2929;50.810;8.342;2023-06-14T13:32:43;2.10;;;1.90;;
5805;SDS011;2929;50.810;8.342;2023-06-14T13:35:11;2.20;;;2.03;;
5805;SDS011;2929;50.810;8.342;2023-06-14T13:37:38;2.93;;;1.97;;
5805;SDS011;2929;50.810;8.342;2023-06-14T13:40:06;5.63;;;2.03;;
5805;SDS011;2929;50.810;8.342;2023-06-14T13:42:33;5.23;;;2.33;;
5805;SDS011;2929;50.810;8.342;2023-06-14T13:45:01;6.03;;;2.20;;
5805;SDS011;2929;50.810;8.342;2023-06-14T13:47:29;2.63;;;2.00;;
5805;SDS011;2929;50.810;8.342;2023-06-14T13:49:57;3.20;;;2.03;;
5805;SDS011;2929;50.810;8.342;2023-06-14T13:52:25;4.23;;;2.27;;
5805;SDS011;2929;50.810;8.342;2023-06-14T13:54:52;2.07;;;1.83;;
5805;SDS011;2929;50.810;8.342;2023-06-14T13:57:20;3.57;;;2.03;;
5805;SDS011;2929;50.810;8.342;2023-06-14T13:59:47;2.37;;;2.20;;
5805;SDS011;2929;50.810;8.342;2023-06-14T14:02:15;4.00;;;2.30;;
5805;SDS011;2929;50.810;8.342;2023-06-14T14:04:42;2.33;;;1.80;;
5805;SDS011;2929;50.810;8.342;2023-06-14T14:07:11;10.07;;;2.30;;
5805;SDS011;2929;50.810;8.342;2023-06-14T14:09:38;2.07;;;1.93;;
5805;SDS011;2929;50.810;8.342;2023-06-14T14:12:08;6.20;;;2.30;;
5805;SDS011;2929;50.810;8.342;2023-06-14T14:14:36;4.70;;;2.20;;
5805;SDS011;2929;50.810;8.342;2023-06-14T14:17:04;2.50;;;2.13;;
5805;SDS011;2929;50.810;8.342;2023-06-14T14:19:32;2.83;;;2.57;;
5805;SDS011;2929;50.810;8.342;2023-06-14T14:21:59;3.53;;;2.30;;
5805;SDS011;2929;50.810;8.342;2023-06-14T14:24:27;3.53;;;2.37;;
5805;SDS011;2929;50.810;8.342;2023-06-14T14:26:55;3.43;;;1.90;;
5805;SDS011;2929;50.810;8.342;2023-06-14T14:29:28;4.13;;;1.90;;
5805;SDS011;2929;50.810;8.342;2023-06-14T14:31:56;2.10;;;1.90;;
5805;SDS011;2929;50.810;8.342;2023-06-14T14:34:24;1.93;;;1.73;;
5805;SDS011;2929;50.810;8.342;2023-06-14T14:36:51;2.10;;;2.00;;
5805;SDS011;2929;50.810;8.342;2023-06-14T14:39:20;2.10;;;2.00;;
5805;SDS011;2929;50.810;8.342;2023-06-14T14:41:48;7.33;;;2.20;;
5805;SDS011;2929;50.810;8.342;2023-06-14T14:44:17;2.43;;;1.93;;
5805;SDS011;2929;50.810;8.342;2023-06-14T14:46:44;1.93;;;1.80;;
5805;SDS011;2929;50.810;8.342;2023-06-14T14:49:12;3.17;;;1.70;;
5805;SDS011;2929;50.810;8.342;2023-06-14T14:51:39;2.20;;;1.90;;
5805;SDS011;2929;50.810;8.342;2023-06-14T14:54:06;5.00;;;2.53;;
5805;SDS011;2929;50.810;8.342;2023-06-14T14:56:36;2.40;;;2.20;;
5805;SDS011;2929;50.810;8.342;2023-06-14T14:59:06;2.40;;;1.97;;
5805;SDS011;2929;50.810;8.342;2023-06-14T15:01:36;3.43;;;1.77;;
5805;SDS011;2929;50.810;8.342;2023-06-14T15:04:07;2.93;;;1.87;;
5805;SDS011;2929;50.810;8.342;2023-06-14T15:06:34;2.37;;;2.17;;
5805;SDS011;2929;50.810;8.342;2023-06-14T15:09:02;3.90;;;1.83;;
5805;SDS011;2929;50.810;8.342;2023-06-14T15:11:30;3.33;;;1.77;;
5805;SDS011;2929;50.810;8.342;2023-06-14T15:13:57;3.00;;;2.20;;
5805;SDS011;2929;50.810;8.342;2023-06-14T15:16:25;2.97;;;1.90;;
5805;SDS011;2929;50.810;8.342;2023-06-14T15:18:54;1.90;;;1.80;;
5805;SDS011;2929;50.810;8.342;2023-06-14T15:21:22;1.77;;;1.67;;
5805;SDS011;2929;50.810;8.342;2023-06-14T15:23:52;2.40;;;2.20;;
5805;SDS011;2929;50.810;8.342;2023-06-14T15:26:20;1.90;;;1.80;;
5805;SDS011;2929;50.810;8.342;2023-06-14T15:28:50;5.27;;;2.23;;
5805;SDS011;2929;50.810;8.342;2023-06-14T15:31:18;2.30;;;2.10;;
5805;SDS011;2929;50.810;8.342;2023-06-14T15:33:46;1.90;;;1.70;;